Saturday, May 28, 2022 (11:26 UTC)
OPMET DATA
 
Terminal Aerodrome Forecast (TAF) and METAR
TAFs are issued by Aviation Meteorological Office, for Abu Dhabi (OMAA), Bateen (OMAD), Al Ain (OMAL), Dubai (OMDB), Al Maktoum (OMDW), Sharjah (OMSJ), Ras Al Khaimah (OMRK) and Fujairah (OMFJ) airports. These TAFs are issued every 6 hours and are valid for a 30 hour period. METARs (Aviation Routine Weather Reports) are updated hourly.
Show ICAO codes
Select OPMET type:        SEARCH   PRINT
Aviation Meteorology - National Center of Meteorology (NCM)
Telephone: +971 2 5757346 / 5053676
Email: metweb@adiamet.gov.ae
Website: www.avmet.ae
METAR OMAA 281100Z 32012KT 300V360 CAVOK 36/15 Q1002 NOSIG=
METAR OMAD 281100Z 33009KT 290V350 CAVOK 36/16 Q1002 NOSIG=
METAR OMAL 281100Z 32014KT 280V340 CAVOK 42/04 Q1003 NOSIG=
METAR OMDB 281100Z 32010KT 260V350 CAVOK 38/19 Q1001 NOSIG=
METAR OMDW 281100Z 30009KT CAVOK 38/18 Q1002 NOSIG=
METAR OMFJ 281100Z 09007KT 6000 NSC 35/20 Q1001 A2957=
METAR OMSJ 281100Z 28009KT CAVOK 38/18 Q1001 NOSIG=
METAR OMRK 281100Z 33006KT 290V050 CAVOK 41/17 Q1000 A2954=
METAR OTBD 281100Z AUTO 35018KT CAVOK 39/07 Q1004 NOSIG=
METAR OTHH 281100Z AUTO 01013KT CAVOK 35/16 Q1003 NOSIG=
METAR OBBI 281100Z 33014KT CAVOK 34/15 Q1004 NOSIG=
METAR OEDF 281100Z 35015KT 8000 NSC 41/08 Q1004 NOSIG=
METAR OEDR 281100Z 36017KT 8000 NSC 39/M04 Q1004 NOSIG=
METAR OEJN 281100Z 29011KT CAVOK 37/21 Q1004 NOSIG=
METAR OEMA 281100Z 19005KT CAVOK 39/M05 Q1010 NOSIG=
METAR OEPA 281100Z 07011KT CAVOK 39/04 Q1008 NOSIG=
METAR OERF 281100Z 05007KT CAVOK 38/M03 Q1009 NOSIG=
METAR OERK 281100Z 17006KT 9000 NSC 39/04 Q1009 NOSIG=
METAR OERR 281100Z 07008KT CAVOK 37/M07 Q1009 NOSIG=
METAR OERY NIL=
METAR OESH 281100Z 08010KT 7000 NSC 42/01 Q1008 NOSIG=
METAR OETB 281100Z 28006KT CAVOK 37/M01 Q1009 NOSIG=
METAR OETF 281100Z 28006G16KT 9999 SCT030 36/00 Q1017 NOSIG=
METAR OETR 281100Z 28008KT 9999 SCT040 BKN100 35/05 Q1012 NOSIG=
METAR OEWD 281100Z 14004KT CAVOK 41/07 Q1007 NOSIG=
METAR OEWJ 281100Z 26010KT CAVOK 30/24 Q1006 NOSIG=
METAR OEYN 281100Z 25019KT CAVOK 39/08 Q1003 NOSIG=
METAR OKBK 281100Z 32010KT CAVOK 40/M01 Q1006 NOSIG=
METAR OOMS 281050Z 05004KT 020V100 8000 NSC 39/15 Q1000 NOSIG=
METAR OOSA 281050Z 19015KT 9999 SCT030 31/25 Q1005 NOSIG=
METAR OYSN NIL=
METAR OYAA NIL=
 
Saturday, May 28, 2022 (11:26 UTC)